sensor_id;sensor_type;location;lat;lon;timestamp;P1;durP1;ratioP1;P2;durP2;ratioP2
27800;SDS011;15181;49.112;11.930;2022-12-18T00:01:27;80.68;;;60.40;;
27800;SDS011;15181;49.112;11.930;2022-12-18T00:03:56;76.78;;;59.38;;
27800;SDS011;15181;49.112;11.930;2022-12-18T00:06:24;80.80;;;60.05;;
27800;SDS011;15181;49.112;11.930;2022-12-18T00:08:53;76.95;;;57.95;;
27800;SDS011;15181;49.112;11.930;2022-12-18T00:11:23;76.55;;;57.95;;
27800;SDS011;15181;49.112;11.930;2022-12-18T00:13:55;76.18;;;58.22;;
27800;SDS011;15181;49.112;11.930;2022-12-18T00:16:25;78.85;;;60.13;;
27800;SDS011;15181;49.112;11.930;2022-12-18T00:18:54;81.07;;;60.47;;
27800;SDS011;15181;49.112;11.930;2022-12-18T00:21:25;79.28;;;57.50;;
27800;SDS011;15181;49.112;11.930;2022-12-18T00:23:53;78.90;;;60.30;;
27800;SDS011;15181;49.112;11.930;2022-12-18T00:26:21;80.90;;;60.45;;
27800;SDS011;15181;49.112;11.930;2022-12-18T00:28:50;78.38;;;60.75;;
27800;SDS011;15181;49.112;11.930;2022-12-18T00:31:22;79.40;;;60.28;;
27800;SDS011;15181;49.112;11.930;2022-12-18T00:33:51;75.95;;;58.15;;
27800;SDS011;15181;49.112;11.930;2022-12-18T00:36:20;81.72;;;60.15;;
27800;SDS011;15181;49.112;11.930;2022-12-18T00:38:49;77.47;;;58.75;;
27800;SDS011;15181;49.112;11.930;2022-12-18T00:41:20;70.97;;;56.17;;
27800;SDS011;15181;49.112;11.930;2022-12-18T00:44:02;71.65;;;58.50;;
27800;SDS011;15181;49.112;11.930;2022-12-18T00:46:32;75.10;;;56.03;;
27800;SDS011;15181;49.112;11.930;2022-12-18T00:48:59;71.32;;;57.65;;
27800;SDS011;15181;49.112;11.930;2022-12-18T00:51:27;71.07;;;55.00;;
27800;SDS011;15181;49.112;11.930;2022-12-18T00:53:54;76.75;;;57.08;;
27800;SDS011;15181;49.112;11.930;2022-12-18T00:56:22;76.28;;;57.78;;
27800;SDS011;15181;49.112;11.930;2022-12-18T00:58:53;81.70;;;61.60;;
27800;SDS011;15181;49.112;11.930;2022-12-18T01:01:21;68.55;;;55.60;;
27800;SDS011;15181;49.112;11.930;2022-12-18T01:03:49;66.72;;;54.42;;
27800;SDS011;15181;49.112;11.930;2022-12-18T01:06:16;73.07;;;57.10;;
27800;SDS011;15181;49.112;11.930;2022-12-18T01:08:45;71.53;;;57.30;;
27800;SDS011;15181;49.112;11.930;2022-12-18T01:11:13;77.97;;;57.33;;
27800;SDS011;15181;49.112;11.930;2022-12-18T01:13:42;68.68;;;55.03;;
27800;SDS011;15181;49.112;11.930;2022-12-18T01:16:10;70.05;;;54.17;;
27800;SDS011;15181;49.112;11.930;2022-12-18T01:18:41;73.72;;;55.40;;
27800;SDS011;15181;49.112;11.930;2022-12-18T01:21:13;63.83;;;51.40;;
27800;SDS011;15181;49.112;11.930;2022-12-18T01:23:41;63.45;;;52.72;;
27800;SDS011;15181;49.112;11.930;2022-12-18T01:26:10;65.57;;;50.95;;
27800;SDS011;15181;49.112;11.930;2022-12-18T01:28:38;64.07;;;49.67;;
27800;SDS011;15181;49.112;11.930;2022-12-18T01:31:13;63.50;;;51.08;;
27800;SDS011;15181;49.112;11.930;2022-12-18T01:33:44;66.22;;;49.97;;
27800;SDS011;15181;49.112;11.930;2022-12-18T01:36:17;69.60;;;52.75;;
27800;SDS011;15181;49.112;11.930;2022-12-18T01:38:49;60.35;;;50.85;;
27800;SDS011;15181;49.112;11.930;2022-12-18T01:41:18;67.53;;;52.45;;
27800;SDS011;15181;49.112;11.930;2022-12-18T01:43:48;73.65;;;54.60;;
27800;SDS011;15181;49.112;11.930;2022-12-18T01:46:18;70.28;;;53.03;;
27800;SDS011;15181;49.112;11.930;2022-12-18T01:48:48;71.45;;;55.55;;
27800;SDS011;15181;49.112;11.930;2022-12-18T01:51:19;68.72;;;52.85;;
27800;SDS011;15181;49.112;11.930;2022-12-18T01:53:47;74.55;;;52.97;;
27800;SDS011;15181;49.112;11.930;2022-12-18T01:56:16;62.53;;;52.45;;
27800;SDS011;15181;49.112;11.930;2022-12-18T01:58:48;65.05;;;50.50;;
27800;SDS011;15181;49.112;11.930;2022-12-18T02:01:20;64.93;;;52.58;;
27800;SDS011;15181;49.112;11.930;2022-12-18T02:03:49;66.93;;;51.25;;
27800;SDS011;15181;49.112;11.930;2022-12-18T02:06:21;68.75;;;54.45;;
27800;SDS011;15181;49.112;11.930;2022-12-18T02:08:58;67.88;;;53.80;;
27800;SDS011;15181;49.112;11.930;2022-12-18T02:11:36;71.38;;;52.17;;
27800;SDS011;15181;49.112;11.930;2022-12-18T02:14:11;63.15;;;48.60;;
27800;SDS011;15181;49.112;11.930;2022-12-18T02:16:45;65.22;;;47.92;;
27800;SDS011;15181;49.112;11.930;2022-12-18T02:19:27;81.25;;;56.45;;
27800;SDS011;15181;49.112;11.930;2022-12-18T02:25:01;69.40;;;51.50;;
27800;SDS011;15181;49.112;11.930;2022-12-18T02:27:40;72.82;;;53.28;;
27800;SDS011;15181;49.112;11.930;2022-12-18T02:30:13;82.93;;;55.90;;
27800;SDS011;15181;49.112;11.930;2022-12-18T02:32:42;85.85;;;57.40;;
27800;SDS011;15181;49.112;11.930;2022-12-18T02:35:14;83.10;;;56.10;;
27800;SDS011;15181;49.112;11.930;2022-12-18T02:37:43;86.97;;;54.67;;
27800;SDS011;15181;49.112;11.930;2022-12-18T02:40:17;79.72;;;56.15;;
27800;SDS011;15181;49.112;11.930;2022-12-18T02:42:48;89.15;;;56.72;;
27800;SDS011;15181;49.112;11.930;2022-12-18T02:45:15;86.28;;;56.10;;
27800;SDS011;15181;49.112;11.930;2022-12-18T02:47:44;79.88;;;53.65;;
27800;SDS011;15181;49.112;11.930;2022-12-18T02:50:16;82.95;;;56.08;;
27800;SDS011;15181;49.112;11.930;2022-12-18T02:52:49;94.60;;;58.67;;
27800;SDS011;15181;49.112;11.930;2022-12-18T02:55:29;84.25;;;52.65;;
27800;SDS011;15181;49.112;11.930;2022-12-18T02:58:20;82.82;;;55.53;;
27800;SDS011;15181;49.112;11.930;2022-12-18T03:00:58;43.03;;;28.88;;
27800;SDS011;15181;49.112;11.930;2022-12-18T03:03:29;82.50;;;54.88;;
27800;SDS011;15181;49.112;11.930;2022-12-18T03:06:01;85.55;;;53.50;;
27800;SDS011;15181;49.112;11.930;2022-12-18T03:08:33;37.95;;;24.08;;
27800;SDS011;15181;49.112;11.930;2022-12-18T03:11:05;83.00;;;55.60;;
27800;SDS011;15181;49.112;11.930;2022-12-18T03:13:37;79.47;;;54.05;;
27800;SDS011;15181;49.112;11.930;2022-12-18T03:16:08;31.48;;;21.23;;
27800;SDS011;15181;49.112;11.930;2022-12-18T03:18:38;82.53;;;53.58;;
27800;SDS011;15181;49.112;11.930;2022-12-18T03:21:11;78.65;;;53.05;;
27800;SDS011;15181;49.112;11.930;2022-12-18T03:23:42;80.70;;;53.05;;
27800;SDS011;15181;49.112;11.930;2022-12-18T03:26:12;84.82;;;53.42;;
27800;SDS011;15181;49.112;11.930;2022-12-18T03:28:45;84.10;;;54.58;;
27800;SDS011;15181;49.112;11.930;2022-12-18T03:31:16;81.78;;;52.58;;
27800;SDS011;15181;49.112;11.930;2022-12-18T03:33:46;76.13;;;52.60;;
27800;SDS011;15181;49.112;11.930;2022-12-18T03:36:18;77.57;;;52.55;;
27800;SDS011;15181;49.112;11.930;2022-12-18T03:38:47;82.50;;;53.38;;
27800;SDS011;15181;49.112;11.930;2022-12-18T03:41:16;75.85;;;51.38;;
27800;SDS011;15181;49.112;11.930;2022-12-18T03:43:52;79.57;;;50.80;;
27800;SDS011;15181;49.112;11.930;2022-12-18T03:46:27;80.22;;;51.97;;
27800;SDS011;15181;49.112;11.930;2022-12-18T03:48:59;82.95;;;55.08;;
27800;SDS011;15181;49.112;11.930;2022-12-18T03:51:36;81.30;;;54.10;;
27800;SDS011;15181;49.112;11.930;2022-12-18T03:54:06;80.70;;;51.60;;
27800;SDS011;15181;49.112;11.930;2022-12-18T03:56:36;77.20;;;50.90;;
27800;SDS011;15181;49.112;11.930;2022-12-18T03:59:10;75.43;;;52.50;;
27800;SDS011;15181;49.112;11.930;2022-12-18T04:01:41;76.20;;;51.60;;
27800;SDS011;15181;49.112;11.930;2022-12-18T04:04:13;77.82;;;51.53;;
27800;SDS011;15181;49.112;11.930;2022-12-18T04:06:42;77.88;;;52.30;;
27800;SDS011;15181;49.112;11.930;2022-12-18T04:09:11;80.50;;;52.95;;
27800;SDS011;15181;49.112;11.930;2022-12-18T04:11:39;76.50;;;52.00;;
27800;SDS011;15181;49.112;11.930;2022-12-18T04:14:07;48.00;;;29.27;;
27800;SDS011;15181;49.112;11.930;2022-12-18T04:16:35;74.50;;;50.08;;
27800;SDS011;15181;49.112;11.930;2022-12-18T04:19:03;81.88;;;51.33;;
27800;SDS011;15181;49.112;11.930;2022-12-18T04:21:30;70.13;;;50.00;;
27800;SDS011;15181;49.112;11.930;2022-12-18T04:23:57;72.30;;;50.95;;
27800;SDS011;15181;49.112;11.930;2022-12-18T04:26:24;78.43;;;52.13;;
27800;SDS011;15181;49.112;11.930;2022-12-18T04:28:51;76.15;;;49.42;;
27800;SDS011;15181;49.112;11.930;2022-12-18T04:31:21;66.85;;;48.20;;
27800;SDS011;15181;49.112;11.930;2022-12-18T04:33:52;70.78;;;50.58;;
27800;SDS011;15181;49.112;11.930;2022-12-18T04:36:19;69.93;;;51.80;;
27800;SDS011;15181;49.112;11.930;2022-12-18T04:38:47;75.18;;;49.92;;
27800;SDS011;15181;49.112;11.930;2022-12-18T04:41:16;70.47;;;47.65;;
27800;SDS011;15181;49.112;11.930;2022-12-18T04:43:43;75.40;;;50.40;;
27800;SDS011;15181;49.112;11.930;2022-12-18T04:46:12;68.47;;;49.85;;
27800;SDS011;15181;49.112;11.930;2022-12-18T04:48:39;67.07;;;47.53;;
27800;SDS011;15181;49.112;11.930;2022-12-18T04:51:07;70.47;;;50.78;;
27800;SDS011;15181;49.112;11.930;2022-12-18T04:53:37;70.00;;;48.40;;
27800;SDS011;15181;49.112;11.930;2022-12-18T04:56:06;73.25;;;48.90;;
27800;SDS011;15181;49.112;11.930;2022-12-18T04:58:35;68.93;;;48.90;;
27800;SDS011;15181;49.112;11.930;2022-12-18T05:01:02;71.10;;;49.88;;
27800;SDS011;15181;49.112;11.930;2022-12-18T05:03:30;69.40;;;49.97;;
27800;SDS011;15181;49.112;11.930;2022-12-18T05:05:59;70.07;;;50.03;;
27800;SDS011;15181;49.112;11.930;2022-12-18T05:08:28;72.05;;;50.92;;
27800;SDS011;15181;49.112;11.930;2022-12-18T05:10:58;64.43;;;48.25;;
27800;SDS011;15181;49.112;11.930;2022-12-18T05:13:26;66.03;;;48.28;;
27800;SDS011;15181;49.112;11.930;2022-12-18T05:15:54;75.13;;;50.20;;
27800;SDS011;15181;49.112;11.930;2022-12-18T05:18:22;68.50;;;50.35;;
27800;SDS011;15181;49.112;11.930;2022-12-18T05:20:49;67.05;;;48.22;;
27800;SDS011;15181;49.112;11.930;2022-12-18T05:23:17;62.80;;;45.45;;
27800;SDS011;15181;49.112;11.930;2022-12-18T05:25:50;64.70;;;47.63;;
27800;SDS011;15181;49.112;11.930;2022-12-18T05:28:18;65.10;;;47.72;;
27800;SDS011;15181;49.112;11.930;2022-12-18T05:30:47;68.75;;;47.60;;
27800;SDS011;15181;49.112;11.930;2022-12-18T05:33:16;64.25;;;47.90;;
27800;SDS011;15181;49.112;11.930;2022-12-18T05:35:44;69.00;;;48.55;;
27800;SDS011;15181;49.112;11.930;2022-12-18T05:38:16;63.55;;;46.90;;
27800;SDS011;15181;49.112;11.930;2022-12-18T05:40:45;61.13;;;46.58;;
27800;SDS011;15181;49.112;11.930;2022-12-18T05:43:16;66.35;;;47.08;;
27800;SDS011;15181;49.112;11.930;2022-12-18T05:45:44;67.13;;;45.83;;
27800;SDS011;15181;49.112;11.930;2022-12-18T05:48:12;64.30;;;46.10;;
27800;SDS011;15181;49.112;11.930;2022-12-18T05:50:43;60.22;;;44.83;;
27800;SDS011;15181;49.112;11.930;2022-12-18T05:53:12;56.90;;;45.03;;
27800;SDS011;15181;49.112;11.930;2022-12-18T05:55:40;58.70;;;44.90;;
27800;SDS011;15181;49.112;11.930;2022-12-18T05:58:11;61.70;;;46.97;;
27800;SDS011;15181;49.112;11.930;2022-12-18T06:00:40;60.65;;;46.05;;
27800;SDS011;15181;49.112;11.930;2022-12-18T06:03:09;61.00;;;45.05;;
27800;SDS011;15181;49.112;11.930;2022-12-18T06:05:39;59.22;;;45.45;;
27800;SDS011;15181;49.112;11.930;2022-12-18T06:08:07;55.55;;;44.40;;
27800;SDS011;15181;49.112;11.930;2022-12-18T06:10:34;50.75;;;42.35;;
27800;SDS011;15181;49.112;11.930;2022-12-18T06:13:02;56.15;;;46.05;;
27800;SDS011;15181;49.112;11.930;2022-12-18T06:15:30;50.47;;;41.60;;
27800;SDS011;15181;49.112;11.930;2022-12-18T06:17:58;45.88;;;39.90;;
27800;SDS011;15181;49.112;11.930;2022-12-18T06:20:26;43.53;;;38.88;;
27800;SDS011;15181;49.112;11.930;2022-12-18T06:22:54;48.33;;;40.78;;
27800;SDS011;15181;49.112;11.930;2022-12-18T06:25:21;51.13;;;40.95;;
27800;SDS011;15181;49.112;11.930;2022-12-18T06:27:50;46.88;;;39.28;;
27800;SDS011;15181;49.112;11.930;2022-12-18T06:30:17;40.85;;;36.40;;
27800;SDS011;15181;49.112;11.930;2022-12-18T06:32:46;41.80;;;37.20;;
27800;SDS011;15181;49.112;11.930;2022-12-18T06:35:14;42.30;;;36.97;;
27800;SDS011;15181;49.112;11.930;2022-12-18T06:37:41;43.10;;;36.58;;
27800;SDS011;15181;49.112;11.930;2022-12-18T06:40:09;40.47;;;35.42;;
27800;SDS011;15181;49.112;11.930;2022-12-18T06:42:36;42.80;;;36.13;;
27800;SDS011;15181;49.112;11.930;2022-12-18T06:45:04;39.00;;;33.05;;
27800;SDS011;15181;49.112;11.930;2022-12-18T06:47:31;20.75;;;18.70;;
27800;SDS011;15181;49.112;11.930;2022-12-18T06:50:00;39.80;;;34.28;;
27800;SDS011;15181;49.112;11.930;2022-12-18T06:52:27;43.05;;;37.00;;
27800;SDS011;15181;49.112;11.930;2022-12-18T06:54:54;41.40;;;36.58;;
27800;SDS011;15181;49.112;11.930;2022-12-18T06:57:21;43.88;;;39.05;;
27800;SDS011;15181;49.112;11.930;2022-12-18T06:59:49;49.33;;;44.00;;
27800;SDS011;15181;49.112;11.930;2022-12-18T07:02:16;42.55;;;37.05;;
27800;SDS011;15181;49.112;11.930;2022-12-18T07:04:44;44.30;;;39.40;;
27800;SDS011;15181;49.112;11.930;2022-12-18T07:07:12;43.30;;;36.60;;
27800;SDS011;15181;49.112;11.930;2022-12-18T07:09:39;39.78;;;35.47;;
27800;SDS011;15181;49.112;11.930;2022-12-18T07:12:06;41.72;;;37.13;;
27800;SDS011;15181;49.112;11.930;2022-12-18T07:14:33;43.35;;;38.17;;
27800;SDS011;15181;49.112;11.930;2022-12-18T07:17:01;43.53;;;37.17;;
27800;SDS011;15181;49.112;11.930;2022-12-18T07:19:28;48.15;;;40.42;;
27800;SDS011;15181;49.112;11.930;2022-12-18T07:21:55;42.08;;;37.78;;
27800;SDS011;15181;49.112;11.930;2022-12-18T07:24:25;43.35;;;36.08;;
27800;SDS011;15181;49.112;11.930;2022-12-18T07:26:55;47.33;;;42.00;;
27800;SDS011;15181;49.112;11.930;2022-12-18T07:29:22;43.53;;;38.50;;
27800;SDS011;15181;49.112;11.930;2022-12-18T07:31:51;47.83;;;39.20;;
27800;SDS011;15181;49.112;11.930;2022-12-18T07:34:18;44.28;;;36.78;;
27800;SDS011;15181;49.112;11.930;2022-12-18T07:36:46;43.17;;;36.70;;
27800;SDS011;15181;49.112;11.930;2022-12-18T07:39:15;44.15;;;39.35;;
27800;SDS011;15181;49.112;11.930;2022-12-18T07:41:45;47.33;;;40.42;;
27800;SDS011;15181;49.112;11.930;2022-12-18T07:44:33;45.85;;;38.60;;
27800;SDS011;15181;49.112;11.930;2022-12-18T07:47:01;43.40;;;37.58;;
27800;SDS011;15181;49.112;11.930;2022-12-18T07:49:29;41.70;;;35.97;;
27800;SDS011;15181;49.112;11.930;2022-12-18T07:51:57;45.28;;;37.45;;
27800;SDS011;15181;49.112;11.930;2022-12-18T07:54:24;46.10;;;38.22;;
27800;SDS011;15181;49.112;11.930;2022-12-18T07:56:53;46.75;;;38.70;;
27800;SDS011;15181;49.112;11.930;2022-12-18T07:59:20;44.95;;;38.22;;
27800;SDS011;15181;49.112;11.930;2022-12-18T08:01:47;44.53;;;38.35;;
27800;SDS011;15181;49.112;11.930;2022-12-18T08:04:15;41.05;;;36.03;;
27800;SDS011;15181;49.112;11.930;2022-12-18T08:06:42;42.08;;;36.22;;
27800;SDS011;15181;49.112;11.930;2022-12-18T08:09:09;48.38;;;40.92;;
27800;SDS011;15181;49.112;11.930;2022-12-18T08:11:36;44.42;;;38.05;;
27800;SDS011;15181;49.112;11.930;2022-12-18T08:14:05;42.03;;;36.42;;
27800;SDS011;15181;49.112;11.930;2022-12-18T08:16:32;44.13;;;36.47;;
27800;SDS011;15181;49.112;11.930;2022-12-18T08:19:00;45.55;;;39.03;;
27800;SDS011;15181;49.112;11.930;2022-12-18T08:21:28;44.70;;;37.40;;
27800;SDS011;15181;49.112;11.930;2022-12-18T08:23:57;49.20;;;39.47;;
27800;SDS011;15181;49.112;11.930;2022-12-18T08:26:29;54.30;;;47.13;;
27800;SDS011;15181;49.112;11.930;2022-12-18T08:28:57;45.65;;;37.90;;
27800;SDS011;15181;49.112;11.930;2022-12-18T08:31:27;44.90;;;36.72;;
27800;SDS011;15181;49.112;11.930;2022-12-18T08:33:56;46.10;;;38.67;;
27800;SDS011;15181;49.112;11.930;2022-12-18T08:36:25;48.63;;;40.92;;
27800;SDS011;15181;49.112;11.930;2022-12-18T08:38:55;47.15;;;38.55;;
27800;SDS011;15181;49.112;11.930;2022-12-18T08:41:24;42.45;;;37.03;;
27800;SDS011;15181;49.112;11.930;2022-12-18T08:43:51;44.65;;;36.95;;
27800;SDS011;15181;49.112;11.930;2022-12-18T08:46:38;44.57;;;36.67;;
27800;SDS011;15181;49.112;11.930;2022-12-18T08:49:06;53.45;;;43.97;;
27800;SDS011;15181;49.112;11.930;2022-12-18T08:51:34;47.63;;;40.28;;
27800;SDS011;15181;49.112;11.930;2022-12-18T08:54:02;50.97;;;42.00;;
27800;SDS011;15181;49.112;11.930;2022-12-18T08:56:31;53.78;;;42.78;;
27800;SDS011;15181;49.112;11.930;2022-12-18T08:58:58;47.92;;;39.25;;
27800;SDS011;15181;49.112;11.930;2022-12-18T09:01:26;46.78;;;38.33;;
27800;SDS011;15181;49.112;11.930;2022-12-18T09:03:55;49.78;;;40.78;;
27800;SDS011;15181;49.112;11.930;2022-12-18T09:06:23;46.20;;;38.30;;
27800;SDS011;15181;49.112;11.930;2022-12-18T09:08:51;39.38;;;35.05;;
27800;SDS011;15181;49.112;11.930;2022-12-18T09:11:19;22.80;;;20.38;;
27800;SDS011;15181;49.112;11.930;2022-12-18T09:13:51;40.58;;;35.13;;
27800;SDS011;15181;49.112;11.930;2022-12-18T09:16:21;40.17;;;34.35;;
27800;SDS011;15181;49.112;11.930;2022-12-18T09:18:49;38.22;;;33.97;;
27800;SDS011;15181;49.112;11.930;2022-12-18T09:21:26;37.57;;;33.57;;
27800;SDS011;15181;49.112;11.930;2022-12-18T09:23:55;38.63;;;32.90;;
27800;SDS011;15181;49.112;11.930;2022-12-18T09:26:22;38.35;;;33.30;;
27800;SDS011;15181;49.112;11.930;2022-12-18T09:28:51;36.83;;;32.83;;
27800;SDS011;15181;49.112;11.930;2022-12-18T09:31:19;37.95;;;33.97;;
27800;SDS011;15181;49.112;11.930;2022-12-18T09:33:48;34.83;;;31.23;;
27800;SDS011;15181;49.112;11.930;2022-12-18T09:36:16;37.35;;;33.35;;
27800;SDS011;15181;49.112;11.930;2022-12-18T09:38:45;37.67;;;33.65;;
27800;SDS011;15181;49.112;11.930;2022-12-18T09:44:19;18.88;;;16.95;;
27800;SDS011;15181;49.112;11.930;2022-12-18T09:46:55;35.10;;;31.50;;
27800;SDS011;15181;49.112;11.930;2022-12-18T09:49:32;33.80;;;30.38;;
27800;SDS011;15181;49.112;11.930;2022-12-18T09:52:04;36.53;;;32.63;;
27800;SDS011;15181;49.112;11.930;2022-12-18T09:54:40;34.67;;;31.00;;
27800;SDS011;15181;49.112;11.930;2022-12-18T09:57:10;39.30;;;35.10;;
27800;SDS011;15181;49.112;11.930;2022-12-18T09:59:41;41.88;;;37.38;;
27800;SDS011;15181;49.112;11.930;2022-12-18T10:02:14;34.53;;;30.83;;
27800;SDS011;15181;49.112;11.930;2022-12-18T10:04:43;58.25;;;52.22;;
27800;SDS011;15181;49.112;11.930;2022-12-18T10:07:15;39.92;;;35.17;;
27800;SDS011;15181;49.112;11.930;2022-12-18T10:09:53;32.97;;;29.65;;
27800;SDS011;15181;49.112;11.930;2022-12-18T10:12:29;34.90;;;31.10;;
27800;SDS011;15181;49.112;11.930;2022-12-18T10:15:05;40.25;;;35.75;;
27800;SDS011;15181;49.112;11.930;2022-12-18T10:17:42;35.03;;;31.33;;
27800;SDS011;15181;49.112;11.930;2022-12-18T10:20:13;36.80;;;32.35;;
27800;SDS011;15181;49.112;11.930;2022-12-18T10:22:46;34.03;;;30.42;;
27800;SDS011;15181;49.112;11.930;2022-12-18T10:25:23;37.88;;;33.78;;
27800;SDS011;15181;49.112;11.930;2022-12-18T10:27:56;36.95;;;32.05;;
27800;SDS011;15181;49.112;11.930;2022-12-18T10:30:27;38.30;;;34.22;;
27800;SDS011;15181;49.112;11.930;2022-12-18T10:32:54;39.05;;;33.85;;
27800;SDS011;15181;49.112;11.930;2022-12-18T10:35:27;40.10;;;35.47;;
27800;SDS011;15181;49.112;11.930;2022-12-18T10:38:05;36.65;;;32.75;;
27800;SDS011;15181;49.112;11.930;2022-12-18T10:40:47;42.55;;;36.67;;
27800;SDS011;15181;49.112;11.930;2022-12-18T10:43:19;39.40;;;35.08;;
27800;SDS011;15181;49.112;11.930;2022-12-18T10:45:58;42.92;;;36.80;;
27800;SDS011;15181;49.112;11.930;2022-12-18T10:48:40;43.47;;;37.35;;
27800;SDS011;15181;49.112;11.930;2022-12-18T10:51:19;39.10;;;34.95;;
27800;SDS011;15181;49.112;11.930;2022-12-18T10:53:51;42.45;;;37.03;;
27800;SDS011;15181;49.112;11.930;2022-12-18T10:56:26;43.75;;;36.85;;
27800;SDS011;15181;49.112;11.930;2022-12-18T10:58:56;43.22;;;37.83;;
27800;SDS011;15181;49.112;11.930;2022-12-18T11:01:30;46.78;;;39.47;;
27800;SDS011;15181;49.112;11.930;2022-12-18T11:04:16;42.50;;;37.15;;
27800;SDS011;15181;49.112;11.930;2022-12-18T11:06:56;41.25;;;36.53;;
27800;SDS011;15181;49.112;11.930;2022-12-18T11:09:26;47.83;;;39.72;;
27800;SDS011;15181;49.112;11.930;2022-12-18T11:11:56;34.70;;;30.90;;
27800;SDS011;15181;49.112;11.930;2022-12-18T11:14:25;36.83;;;32.92;;
27800;SDS011;15181;49.112;11.930;2022-12-18T11:16:54;36.40;;;31.98;;
27800;SDS011;15181;49.112;11.930;2022-12-18T11:19:30;36.28;;;30.85;;
27800;SDS011;15181;49.112;11.930;2022-12-18T11:22:00;36.45;;;32.65;;
27800;SDS011;15181;49.112;11.930;2022-12-18T11:24:29;35.22;;;31.80;;
27800;SDS011;15181;49.112;11.930;2022-12-18T11:27:01;34.17;;;30.48;;
27800;SDS011;15181;49.112;11.930;2022-12-18T11:29:34;35.45;;;31.90;;
27800;SDS011;15181;49.112;11.930;2022-12-18T11:32:20;34.75;;;31.08;;
27800;SDS011;15181;49.112;11.930;2022-12-18T11:34:58;35.35;;;31.52;;
27800;SDS011;15181;49.112;11.930;2022-12-18T11:37:29;35.17;;;31.63;;
27800;SDS011;15181;49.112;11.930;2022-12-18T11:39:58;34.53;;;31.02;;
27800;SDS011;15181;49.112;11.930;2022-12-18T11:42:34;37.20;;;33.30;;
27800;SDS011;15181;49.112;11.930;2022-12-18T11:47:48;35.78;;;32.08;;
27800;SDS011;15181;49.112;11.930;2022-12-18T11:50:23;41.13;;;36.65;;
27800;SDS011;15181;49.112;11.930;2022-12-18T11:52:52;41.65;;;34.60;;
27800;SDS011;15181;49.112;11.930;2022-12-18T11:55:21;41.92;;;36.05;;
27800;SDS011;15181;49.112;11.930;2022-12-18T11:58:01;41.33;;;36.28;;
27800;SDS011;15181;49.112;11.930;2022-12-18T12:00:36;41.20;;;36.38;;
27800;SDS011;15181;49.112;11.930;2022-12-18T12:03:20;53.63;;;47.95;;
27800;SDS011;15181;49.112;11.930;2022-12-18T12:06:03;41.15;;;36.72;;
27800;SDS011;15181;49.112;11.930;2022-12-18T12:08:40;40.08;;;35.78;;
27800;SDS011;15181;49.112;11.930;2022-12-18T12:11:16;40.25;;;34.30;;
27800;SDS011;15181;49.112;11.930;2022-12-18T12:16:26;43.53;;;38.92;;
27800;SDS011;15181;49.112;11.930;2022-12-18T12:19:15;43.05;;;37.38;;
27800;SDS011;15181;49.112;11.930;2022-12-18T12:21:57;51.88;;;45.70;;
27800;SDS011;15181;49.112;11.930;2022-12-18T12:24:32;39.97;;;35.40;;
27800;SDS011;15181;49.112;11.930;2022-12-18T12:27:09;42.05;;;37.22;;
27800;SDS011;15181;49.112;11.930;2022-12-18T12:29:49;41.03;;;35.95;;
27800;SDS011;15181;49.112;11.930;2022-12-18T12:32:30;47.17;;;42.15;;
27800;SDS011;15181;49.112;11.930;2022-12-18T12:35:14;40.85;;;36.42;;
27800;SDS011;15181;49.112;11.930;2022-12-18T12:37:58;42.20;;;36.05;;
27800;SDS011;15181;49.112;11.930;2022-12-18T12:40:34;47.88;;;39.88;;
27800;SDS011;15181;49.112;11.930;2022-12-18T12:43:05;41.08;;;35.90;;
27800;SDS011;15181;49.112;11.930;2022-12-18T12:45:47;42.83;;;38.13;;
27800;SDS011;15181;49.112;11.930;2022-12-18T12:48:28;46.20;;;39.78;;
27800;SDS011;15181;49.112;11.930;2022-12-18T12:51:03;39.67;;;34.50;;
27800;SDS011;15181;49.112;11.930;2022-12-18T12:53:36;39.67;;;34.70;;
27800;SDS011;15181;49.112;11.930;2022-12-18T12:56:04;39.50;;;35.25;;
27800;SDS011;15181;49.112;11.930;2022-12-18T12:58:34;50.35;;;42.10;;
27800;SDS011;15181;49.112;11.930;2022-12-18T13:01:14;40.57;;;36.33;;
27800;SDS011;15181;49.112;11.930;2022-12-18T13:03:52;42.50;;;37.35;;
27800;SDS011;15181;49.112;11.930;2022-12-18T13:06:30;59.92;;;47.17;;
27800;SDS011;15181;49.112;11.930;2022-12-18T13:09:04;48.78;;;42.22;;
27800;SDS011;15181;49.112;11.930;2022-12-18T13:11:32;38.47;;;34.33;;
27800;SDS011;15181;49.112;11.930;2022-12-18T13:14:24;38.60;;;34.60;;
27800;SDS011;15181;49.112;11.930;2022-12-18T13:19:43;39.17;;;35.08;;
27800;SDS011;15181;49.112;11.930;2022-12-18T13:22:21;36.85;;;33.13;;
27800;SDS011;15181;49.112;11.930;2022-12-18T13:24:50;41.42;;;37.08;;
27800;SDS011;15181;49.112;11.930;2022-12-18T13:30:42;38.03;;;33.92;;
27800;SDS011;15181;49.112;11.930;2022-12-18T13:33:38;37.47;;;33.53;;
27800;SDS011;15181;49.112;11.930;2022-12-18T13:36:15;36.95;;;33.00;;
27800;SDS011;15181;49.112;11.930;2022-12-18T13:41:51;36.38;;;32.67;;
27800;SDS011;15181;49.112;11.930;2022-12-18T13:44:25;38.78;;;34.88;;
27800;SDS011;15181;49.112;11.930;2022-12-18T13:46:58;36.35;;;32.60;;
27800;SDS011;15181;49.112;11.930;2022-12-18T13:49:30;35.85;;;32.03;;
27800;SDS011;15181;49.112;11.930;2022-12-18T13:52:13;40.25;;;36.00;;
27800;SDS011;15181;49.112;11.930;2022-12-18T13:54:45;37.42;;;33.47;;
27800;SDS011;15181;49.112;11.930;2022-12-18T13:57:27;36.95;;;33.22;;
27800;SDS011;15181;49.112;11.930;2022-12-18T13:59:56;38.42;;;34.63;;
27800;SDS011;15181;49.112;11.930;2022-12-18T14:02:25;38.08;;;33.95;;
27800;SDS011;15181;49.112;11.930;2022-12-18T14:04:56;38.25;;;34.28;;
27800;SDS011;15181;49.112;11.930;2022-12-18T14:07:24;43.33;;;38.70;;
27800;SDS011;15181;49.112;11.930;2022-12-18T14:09:53;37.38;;;33.53;;
27800;SDS011;15181;49.112;11.930;2022-12-18T14:12:22;38.95;;;34.85;;
27800;SDS011;15181;49.112;11.930;2022-12-18T14:15:12;39.45;;;35.15;;
27800;SDS011;15181;49.112;11.930;2022-12-18T14:17:52;39.13;;;34.95;;
27800;SDS011;15181;49.112;11.930;2022-12-18T14:20:25;39.50;;;35.13;;
27800;SDS011;15181;49.112;11.930;2022-12-18T14:22:53;39.35;;;35.25;;
27800;SDS011;15181;49.112;11.930;2022-12-18T14:25:23;39.47;;;35.13;;
27800;SDS011;15181;49.112;11.930;2022-12-18T14:27:51;39.30;;;35.22;;
27800;SDS011;15181;49.112;11.930;2022-12-18T14:30:27;39.03;;;35.03;;
27800;SDS011;15181;49.112;11.930;2022-12-18T14:33:04;42.65;;;36.78;;
27800;SDS011;15181;49.112;11.930;2022-12-18T14:35:38;40.40;;;36.15;;
27800;SDS011;15181;49.112;11.930;2022-12-18T14:38:10;40.90;;;36.60;;
27800;SDS011;15181;49.112;11.930;2022-12-18T14:40:47;41.63;;;36.35;;
27800;SDS011;15181;49.112;11.930;2022-12-18T14:43:14;42.72;;;38.00;;
27800;SDS011;15181;49.112;11.930;2022-12-18T14:45:42;42.70;;;38.05;;
27800;SDS011;15181;49.112;11.930;2022-12-18T14:48:14;41.00;;;36.72;;
27800;SDS011;15181;49.112;11.930;2022-12-18T14:50:45;43.33;;;38.78;;
27800;SDS011;15181;49.112;11.930;2022-12-18T14:53:23;41.00;;;36.70;;